createdAt,value
2023-02-12T00:02:18.999Z,22.90
2023-02-12T00:05:05.215Z,27.38
2023-02-12T00:07:51.232Z,27.63
2023-02-12T00:10:41.564Z,24.33
2023-02-12T00:13:31.335Z,28.48
2023-02-12T00:16:20.632Z,27.63
2023-02-12T00:19:06.555Z,30.75
2023-02-12T00:21:52.434Z,26.00
2023-02-12T00:24:38.328Z,26.02
2023-02-12T00:27:24.894Z,26.70
2023-02-12T00:30:11.383Z,26.42
2023-02-12T00:32:57.367Z,26.23
2023-02-12T00:35:43.197Z,29.20
2023-02-12T00:38:29.399Z,27.35
2023-02-12T00:41:15.274Z,24.85
2023-02-12T00:44:01.130Z,32.45
2023-02-12T00:46:47.316Z,27.80
2023-02-12T00:49:35.645Z,36.28
2023-02-12T00:52:21.749Z,43.75
2023-02-12T00:55:09.456Z,33.78
2023-02-12T00:57:55.329Z,37.95
2023-02-12T01:00:41.300Z,25.85
2023-02-12T01:03:27.235Z,27.30
2023-02-12T01:06:13.090Z,27.15
2023-02-12T01:08:58.803Z,21.98
2023-02-12T01:11:44.605Z,23.23
2023-02-12T01:14:30.374Z,22.63
2023-02-12T01:17:16.260Z,22.13
2023-02-12T01:20:05.917Z,22.95
2023-02-12T01:22:52.605Z,22.08
2023-02-12T01:25:38.974Z,23.17
2023-02-12T01:28:24.904Z,21.70
2023-02-12T01:31:17.247Z,24.08
2023-02-12T01:34:03.002Z,23.33
2023-02-12T01:36:49.097Z,21.10
2023-02-12T01:39:35.960Z,21.52
2023-02-12T01:42:22.089Z,22.70
2023-02-12T01:45:14.090Z,25.02
2023-02-12T01:48:00.565Z,20.42
2023-02-12T01:50:48.894Z,21.13
2023-02-12T01:53:37.550Z,29.35
2023-02-12T01:56:24.590Z,62.65
2023-02-12T01:59:10.855Z,81.85
2023-02-12T02:01:56.773Z,84.80
2023-02-12T02:04:54.914Z,88.85
2023-02-12T02:07:42.218Z,109.72
2023-02-12T02:10:30.116Z,110.10
2023-02-12T02:13:34.761Z,114.75
2023-02-12T02:16:26.421Z,106.70
2023-02-12T02:19:30.869Z,88.47
2023-02-12T02:22:28.477Z,93.93
2023-02-12T02:25:51.646Z,80.93
2023-02-12T02:29:02.275Z,81.10
2023-02-12T02:31:54.564Z,84.03
2023-02-12T02:35:07.629Z,84.45
2023-02-12T02:38:15.000Z,74.30
2023-02-12T02:41:07.007Z,66.85
2023-02-12T02:43:53.641Z,70.88
2023-02-12T02:46:46.360Z,75.32
2023-02-12T02:52:25.167Z,81.70
2023-02-12T02:55:13.465Z,86.72
2023-02-12T02:58:03.605Z,91.53
2023-02-12T03:00:59.380Z,128.10
2023-02-12T03:03:51.111Z,159.30
2023-02-12T03:06:57.832Z,142.67
2023-02-12T03:09:50.340Z,136.00
2023-02-12T03:12:47.581Z,125.53
2023-02-12T03:15:58.625Z,122.55
2023-02-12T03:19:06.643Z,111.60
2023-02-12T03:21:58.669Z,97.38
2023-02-12T03:24:48.824Z,120.57
2023-02-12T03:27:38.816Z,124.32
2023-02-12T03:30:40.460Z,117.28
2023-02-12T03:33:38.073Z,111.22
2023-02-12T03:36:53.180Z,96.35
2023-02-12T03:39:43.828Z,106.05
2023-02-12T03:42:38.645Z,106.45
2023-02-12T03:45:55.200Z,103.13
2023-02-12T03:48:56.516Z,101.28
2023-02-12T03:51:45.221Z,90.60
2023-02-12T03:54:31.015Z,82.95
2023-02-12T03:57:20.490Z,89.65
2023-02-12T04:00:11.981Z,86.45
2023-02-12T04:03:01.028Z,101.20
2023-02-12T04:05:46.940Z,120.03
2023-02-12T04:08:33.241Z,123.35
2023-02-12T04:11:45.187Z,111.05
2023-02-12T04:14:46.979Z,114.82
2023-02-12T04:17:47.364Z,116.47
2023-02-12T04:20:54.298Z,125.78
2023-02-12T04:23:48.952Z,130.80
2023-02-12T04:26:40.068Z,118.50
2023-02-12T04:29:44.459Z,116.40
2023-02-12T04:32:35.342Z,118.43
2023-02-12T04:35:35.941Z,116.78
2023-02-12T04:38:25.540Z,117.45
2023-02-12T04:41:11.491Z,118.13
2023-02-12T04:43:57.213Z,121.03
2023-02-12T04:46:42.988Z,121.95
2023-02-12T04:49:28.912Z,118.63
2023-02-12T04:52:14.591Z,110.47
2023-02-12T04:55:00.520Z,116.72
2023-02-12T04:57:46.345Z,116.88
2023-02-12T05:00:32.830Z,120.15
2023-02-12T05:03:18.412Z,123.32
2023-02-12T05:06:06.017Z,120.75
2023-02-12T05:08:55.280Z,129.15
2023-02-12T05:11:41.367Z,133.23
2023-02-12T05:14:27.336Z,133.98
2023-02-12T05:17:13.217Z,140.95
2023-02-12T05:19:59.153Z,162.98
2023-02-12T05:22:44.963Z,174.07
2023-02-12T05:25:32.094Z,159.65
2023-02-12T05:28:18.235Z,135.10
2023-02-12T05:31:06.506Z,130.32
2023-02-12T05:33:52.415Z,132.07
2023-02-12T05:36:38.329Z,121.80
2023-02-12T05:39:24.135Z,131.05
2023-02-12T05:42:10.002Z,117.43
2023-02-12T05:44:55.863Z,111.50
2023-02-12T05:47:41.615Z,115.60
2023-02-12T05:50:27.522Z,116.53
2023-02-12T05:53:18.861Z,106.75
2023-02-12T05:56:19.462Z,116.38
2023-02-12T05:59:14.189Z,110.40
2023-02-12T06:02:00.171Z,101.72
2023-02-12T06:04:48.526Z,103.88
2023-02-12T06:07:34.497Z,103.97
2023-02-12T06:10:20.463Z,101.05
2023-02-12T06:13:06.714Z,94.57
2023-02-12T06:15:52.549Z,101.45
2023-02-12T06:18:38.362Z,96.88
2023-02-12T06:21:27.838Z,99.85
2023-02-12T06:24:15.160Z,87.88
2023-02-12T06:27:01.048Z,95.03
2023-02-12T06:29:46.908Z,96.30
2023-02-12T06:32:32.620Z,91.82
2023-02-12T06:35:18.322Z,105.20
2023-02-12T06:38:04.879Z,110.18
2023-02-12T06:40:50.886Z,109.50
2023-02-12T06:43:37.233Z,113.00
2023-02-12T06:46:23.203Z,102.18
2023-02-12T06:49:12.246Z,102.82
2023-02-12T06:51:58.003Z,114.75
2023-02-12T06:54:43.944Z,109.40
2023-02-12T06:57:30.146Z,111.97
2023-02-12T07:00:16.563Z,117.20
2023-02-12T07:03:02.702Z,108.82
2023-02-12T07:05:48.424Z,105.80
2023-02-12T07:08:34.319Z,104.55
2023-02-12T07:11:24.200Z,104.57
2023-02-12T07:14:19.200Z,107.55
2023-02-12T07:17:05.603Z,95.55
2023-02-12T07:19:51.294Z,117.68
2023-02-12T07:22:37.421Z,113.00
2023-02-12T07:25:23.423Z,86.60
2023-02-12T07:28:09.385Z,87.90
2023-02-12T07:30:55.198Z,43.00
2023-02-12T07:33:41.516Z,37.35
2023-02-12T07:36:30.868Z,16.55
2023-02-12T07:39:16.993Z,22.85
2023-02-12T07:42:02.797Z,13.23
2023-02-12T07:44:48.890Z,15.30
2023-02-12T07:47:38.548Z,15.52
2023-02-12T07:50:24.467Z,15.90
2023-02-12T07:53:10.193Z,13.88
2023-02-12T07:55:56.482Z,14.43
2023-02-12T07:58:45.089Z,12.82
2023-02-12T08:01:39.100Z,13.50
2023-02-12T08:04:25.718Z,13.95
2023-02-12T08:07:11.825Z,11.20
2023-02-12T08:09:57.799Z,11.80
2023-02-12T08:12:43.760Z,18.13
2023-02-12T08:15:29.584Z,18.73
2023-02-12T08:18:15.267Z,20.23
2023-02-12T08:21:04.917Z,19.98
2023-02-12T08:23:52.034Z,19.38
2023-02-12T08:26:39.184Z,19.05
2023-02-12T08:29:30.411Z,14.13
2023-02-12T08:32:17.253Z,15.05
2023-02-12T08:35:03.255Z,14.07
2023-02-12T08:37:49.030Z,10.52
2023-02-12T08:40:35.035Z,13.15
2023-02-12T08:43:20.839Z,13.80
2023-02-12T08:46:35.060Z,10.98
2023-02-12T08:49:23.400Z,11.18
2023-02-12T08:52:09.330Z,12.65
2023-02-12T08:54:55.045Z,10.98
2023-02-12T08:57:42.454Z,11.77
2023-02-12T09:00:28.177Z,11.73
2023-02-12T09:03:13.873Z,14.73
2023-02-12T09:06:03.434Z,11.27
2023-02-12T09:08:49.618Z,11.13
2023-02-12T09:11:35.776Z,9.18
2023-02-12T09:14:25.320Z,13.90
2023-02-12T09:17:11.345Z,19.80
2023-02-12T09:19:57.669Z,26.60
2023-02-12T09:22:43.899Z,14.80
2023-02-12T09:25:29.859Z,10.85
2023-02-12T09:28:15.663Z,12.07
2023-02-12T09:31:08.745Z,11.85
2023-02-12T09:33:57.645Z,8.43
2023-02-12T09:36:43.552Z,17.58
2023-02-12T09:39:30.862Z,10.48
2023-02-12T09:42:45.443Z,17.48
2023-02-12T09:45:35.718Z,11.20
2023-02-12T09:48:27.818Z,8.13
2023-02-12T09:51:14.140Z,9.90
2023-02-12T09:54:18.739Z,10.02
2023-02-12T09:57:12.218Z,22.33
2023-02-12T10:00:24.903Z,13.65
2023-02-12T10:03:16.818Z,14.38
2023-02-12T10:06:08.514Z,14.70
2023-02-12T10:09:00.555Z,12.25
2023-02-12T10:12:22.737Z,12.85
2023-02-12T10:15:33.483Z,9.18
2023-02-12T10:18:28.722Z,10.90
2023-02-12T10:21:23.519Z,9.85
2023-02-12T10:24:44.381Z,9.70
2023-02-12T10:27:48.701Z,9.38
2023-02-12T10:30:52.604Z,8.95
2023-02-12T10:33:42.810Z,10.73
2023-02-12T10:36:45.031Z,15.00
2023-02-12T10:39:43.873Z,10.57
2023-02-12T10:42:36.402Z,9.50
2023-02-12T10:48:35.550Z,9.98
2023-02-12T10:51:38.353Z,9.15
2023-02-12T10:57:22.564Z,9.98
2023-02-12T11:00:35.780Z,11.68
2023-02-12T11:06:29.515Z,48.95
2023-02-12T11:09:28.460Z,12.00
2023-02-12T11:12:26.749Z,13.77
2023-02-12T11:15:20.185Z,14.10
2023-02-12T11:18:08.574Z,12.25
2023-02-12T11:20:59.106Z,14.57
2023-02-12T11:23:46.526Z,22.33
2023-02-12T11:26:33.634Z,19.00
2023-02-12T11:29:24.240Z,16.48
2023-02-12T11:32:18.885Z,16.17
2023-02-12T11:35:25.091Z,16.63
2023-02-12T11:38:24.550Z,17.67
2023-02-12T11:41:36.336Z,16.92
2023-02-12T11:44:34.925Z,18.20
2023-02-12T11:47:29.228Z,19.23
2023-02-12T11:50:26.660Z,19.75
2023-02-12T11:53:22.341Z,18.80
2023-02-12T11:56:10.852Z,20.40
2023-02-12T11:59:11.797Z,20.55
2023-02-12T12:02:02.301Z,21.48
2023-02-12T12:04:50.356Z,25.45
2023-02-12T12:07:37.206Z,21.95
2023-02-12T12:10:34.611Z,28.15
2023-02-12T12:13:26.143Z,28.27
2023-02-12T12:16:38.376Z,29.00
2023-02-12T12:19:47.329Z,29.20
2023-02-12T12:22:39.868Z,31.23
2023-02-12T12:25:46.477Z,22.17
2023-02-12T12:28:45.941Z,28.83
2023-02-12T12:31:41.067Z,28.17
2023-02-12T12:34:28.075Z,26.13
2023-02-12T12:37:29.445Z,31.00
2023-02-12T12:40:30.452Z,36.92
2023-02-12T12:43:55.129Z,28.50
2023-02-12T12:46:48.099Z,28.17
2023-02-12T12:49:49.651Z,29.10
2023-02-12T12:52:44.943Z,26.63
2023-02-12T12:56:07.834Z,33.05
2023-02-12T12:59:06.013Z,33.28
2023-02-12T13:01:54.740Z,33.67
2023-02-12T13:04:56.939Z,36.13
2023-02-12T13:08:18.422Z,35.50
2023-02-12T13:11:23.357Z,39.35
2023-02-12T13:14:40.394Z,37.72
2023-02-12T13:17:32.141Z,44.53
2023-02-12T13:20:34.959Z,45.13
2023-02-12T13:23:58.466Z,40.25
2023-02-12T13:29:37.455Z,39.42
2023-02-12T13:32:29.861Z,48.67
2023-02-12T13:35:26.103Z,42.28
2023-02-12T13:38:19.409Z,40.55
2023-02-12T13:41:07.807Z,42.20
2023-02-12T13:44:32.634Z,40.17
2023-02-12T13:47:44.554Z,34.47
2023-02-12T13:50:36.566Z,32.13
2023-02-12T13:53:37.662Z,43.23
2023-02-12T13:56:34.675Z,48.05
2023-02-12T13:59:35.637Z,44.22
2023-02-12T14:02:33.937Z,46.80
2023-02-12T14:05:30.990Z,40.60
2023-02-12T14:08:36.268Z,37.05
2023-02-12T14:11:24.702Z,42.00
2023-02-12T14:14:10.827Z,42.28
2023-02-12T14:16:57.366Z,39.75
2023-02-12T14:19:55.435Z,38.20
2023-02-12T14:22:44.168Z,42.10
2023-02-12T14:25:37.309Z,42.95
2023-02-12T14:28:44.676Z,41.97
2023-02-12T14:31:33.745Z,40.65
2023-02-12T14:34:22.644Z,41.08
2023-02-12T14:37:12.551Z,48.88
2023-02-12T14:40:34.077Z,38.10
2023-02-12T14:43:54.877Z,40.55
2023-02-12T14:47:13.156Z,44.30
2023-02-12T14:50:08.934Z,41.70
2023-02-12T14:52:59.835Z,41.38
2023-02-12T14:55:46.975Z,44.58
2023-02-12T14:58:33.213Z,46.70
2023-02-12T15:01:31.105Z,48.88
2023-02-12T15:04:28.477Z,50.38
2023-02-12T15:07:17.708Z,48.28
2023-02-12T15:10:10.717Z,48.03
2023-02-12T15:13:30.199Z,42.67
2023-02-12T15:16:22.881Z,41.67
2023-02-12T15:19:27.049Z,49.45
2023-02-12T15:22:18.207Z,46.85
2023-02-12T15:25:24.649Z,45.72
2023-02-12T15:28:20.096Z,46.35
2023-02-12T15:31:10.642Z,50.78
2023-02-12T15:33:58.739Z,44.45
2023-02-12T15:36:45.858Z,52.08
2023-02-12T15:39:43.762Z,41.17
2023-02-12T15:42:40.579Z,39.78
2023-02-12T15:45:28.810Z,40.40
2023-02-12T15:48:19.560Z,39.85
2023-02-12T15:51:10.189Z,42.70
2023-02-12T15:53:57.485Z,41.40
2023-02-12T15:56:43.443Z,43.00
2023-02-12T15:59:29.474Z,38.08
2023-02-12T16:02:22.038Z,39.60
2023-02-12T16:05:08.130Z,41.58
2023-02-12T16:07:54.506Z,39.50
2023-02-12T16:10:44.064Z,40.85
2023-02-12T16:13:33.574Z,46.83
2023-02-12T16:16:22.705Z,38.05
2023-02-12T16:19:20.687Z,37.53
2023-02-12T16:22:15.327Z,45.40
2023-02-12T16:25:01.732Z,34.92
2023-02-12T16:28:18.456Z,36.45
2023-02-12T16:31:14.307Z,34.28
2023-02-12T16:34:01.094Z,35.13
2023-02-12T16:36:47.275Z,35.38
2023-02-12T16:39:55.562Z,33.97
2023-02-12T16:42:47.676Z,37.55
2023-02-12T16:45:35.680Z,36.50
2023-02-12T16:48:25.264Z,31.23
2023-02-12T16:51:28.364Z,34.63
2023-02-12T16:54:27.902Z,38.13
2023-02-12T16:57:13.784Z,38.00
2023-02-12T16:59:59.628Z,36.47
2023-02-12T17:02:47.154Z,38.53
2023-02-12T17:05:33.059Z,36.65
2023-02-12T17:08:21.533Z,34.10
2023-02-12T17:11:09.844Z,38.08
2023-02-12T17:13:57.882Z,36.83
2023-02-12T17:16:44.722Z,34.50
2023-02-12T17:19:30.597Z,32.88
2023-02-12T17:22:25.026Z,37.50
2023-02-12T17:25:12.246Z,38.83
2023-02-12T17:27:58.740Z,34.70
2023-02-12T17:30:44.950Z,37.63
2023-02-12T17:33:30.911Z,39.13
2023-02-12T17:36:16.734Z,44.25
2023-02-12T17:39:05.020Z,38.53
2023-02-12T17:41:51.860Z,33.80
2023-02-12T17:44:37.685Z,39.85
2023-02-12T17:47:23.818Z,37.80
2023-02-12T17:50:14.775Z,36.97
2023-02-12T17:53:00.660Z,34.13
2023-02-12T17:55:46.625Z,36.65
2023-02-12T17:58:32.506Z,33.28
2023-02-12T18:01:21.001Z,36.25
2023-02-12T18:04:07.160Z,40.38
2023-02-12T18:06:53.193Z,37.92
2023-02-12T18:09:39.649Z,36.95
2023-02-12T18:12:25.751Z,38.42
2023-02-12T18:15:11.564Z,33.38
2023-02-12T18:17:57.502Z,37.28
2023-02-12T18:20:44.143Z,38.72
2023-02-12T18:23:30.159Z,37.35
2023-02-12T18:26:18.145Z,36.05
2023-02-12T18:29:04.554Z,41.28
2023-02-12T18:31:51.522Z,34.65
2023-02-12T18:34:37.456Z,39.00
2023-02-12T18:37:23.662Z,36.30
2023-02-12T18:40:10.758Z,36.47
2023-02-12T18:42:56.983Z,36.28
2023-02-12T18:45:43.005Z,40.55
2023-02-12T18:48:29.242Z,38.03
2023-02-12T18:51:23.868Z,36.25
2023-02-12T18:54:13.642Z,36.03
2023-02-12T18:56:59.666Z,35.47
2023-02-12T18:59:45.901Z,33.63
2023-02-12T19:02:31.944Z,37.00
2023-02-12T19:05:17.846Z,33.67
2023-02-12T19:08:03.883Z,36.13
2023-02-12T19:10:49.948Z,36.20
2023-02-12T19:13:36.167Z,37.25
2023-02-12T19:16:23.808Z,39.42
2023-02-12T19:19:09.670Z,39.47
2023-02-12T19:21:55.794Z,37.05
2023-02-12T19:24:47.021Z,36.28
2023-02-12T19:27:33.572Z,34.55
2023-02-12T19:30:20.023Z,39.63
2023-02-12T19:33:06.490Z,42.05
2023-02-12T19:35:52.818Z,32.53
2023-02-12T19:38:39.056Z,35.35
2023-02-12T19:41:27.228Z,37.70
2023-02-12T19:44:17.994Z,44.30
2023-02-12T19:47:04.944Z,44.42
2023-02-12T19:49:50.950Z,45.75
2023-02-12T19:52:37.244Z,45.88
2023-02-12T19:55:23.365Z,51.13
2023-02-12T19:58:09.520Z,37.22
2023-02-12T20:00:55.826Z,43.92
2023-02-12T20:03:42.477Z,37.78
2023-02-12T20:06:31.944Z,34.13
2023-02-12T20:09:19.204Z,39.65
2023-02-12T20:12:05.616Z,39.72
2023-02-12T20:14:51.404Z,36.40
2023-02-12T20:17:37.350Z,36.20
2023-02-12T20:20:23.068Z,58.65
2023-02-12T20:23:08.928Z,37.92
2023-02-12T20:25:54.830Z,39.58
2023-02-12T20:28:44.893Z,38.65
2023-02-12T20:31:33.958Z,38.92
2023-02-12T20:34:20.788Z,37.35
2023-02-12T20:37:08.043Z,46.17
2023-02-12T20:39:54.596Z,45.97
2023-02-12T20:42:41.068Z,42.67
2023-02-12T20:45:27.277Z,44.08
2023-02-12T20:48:13.336Z,40.08
2023-02-12T20:51:06.855Z,43.85
2023-02-12T20:53:55.369Z,41.85
2023-02-12T20:56:41.240Z,38.33
2023-02-12T20:59:27.143Z,36.45
2023-02-12T21:02:13.032Z,35.03
2023-02-12T21:04:59.318Z,35.38
2023-02-12T21:07:46.175Z,34.00
2023-02-12T21:10:32.923Z,37.88
2023-02-12T21:13:19.090Z,35.17
2023-02-12T21:16:10.641Z,40.58
2023-02-12T21:18:56.846Z,35.73
2023-02-12T21:21:45.335Z,33.15
2023-02-12T21:24:31.339Z,37.67
2023-02-12T21:27:17.124Z,36.40
2023-02-12T21:30:03.225Z,36.08
2023-02-12T21:32:49.789Z,39.05
2023-02-12T21:35:36.843Z,49.47
2023-02-12T21:38:22.732Z,38.30
2023-02-12T21:41:13.071Z,43.75
2023-02-12T21:44:01.201Z,41.83
2023-02-12T21:46:47.188Z,39.75
2023-02-12T21:49:33.396Z,47.35
2023-02-12T21:52:19.149Z,48.35
2023-02-12T21:55:05.201Z,43.70
2023-02-12T21:57:51.375Z,40.72
2023-02-12T22:00:37.259Z,42.72
2023-02-12T22:03:23.027Z,48.10
2023-02-12T22:06:09.232Z,65.28
2023-02-12T22:09:00.206Z,49.10
2023-02-12T22:11:46.173Z,63.22
2023-02-12T22:14:35.164Z,58.80
2023-02-12T22:17:21.963Z,62.40
2023-02-12T22:20:08.975Z,66.82
2023-02-12T22:22:55.116Z,59.60
2023-02-12T22:25:41.042Z,53.65
2023-02-12T22:28:27.289Z,48.00
2023-02-12T22:31:19.617Z,45.83
2023-02-12T22:34:10.224Z,51.85
2023-02-12T22:36:56.436Z,46.38
2023-02-12T22:39:42.241Z,47.65
2023-02-12T22:42:28.147Z,46.72
2023-02-12T22:45:14.186Z,44.92
2023-02-12T22:48:00.022Z,43.63
2023-02-12T22:50:45.799Z,47.72
2023-02-12T22:53:31.537Z,47.00
2023-02-12T22:56:17.885Z,47.90
2023-02-12T22:59:03.805Z,57.10
2023-02-12T23:01:49.592Z,55.33
2023-02-12T23:04:36.634Z,48.58
2023-02-12T23:07:22.670Z,50.53
2023-02-12T23:10:08.805Z,46.20
2023-02-12T23:12:54.918Z,50.08
2023-02-12T23:15:40.698Z,57.53
2023-02-12T23:18:26.480Z,50.80
2023-02-12T23:21:12.447Z,47.58
2023-02-12T23:24:01.521Z,48.78
2023-02-12T23:26:47.495Z,59.50
2023-02-12T23:29:34.279Z,50.83
2023-02-12T23:32:20.277Z,44.40
2023-02-12T23:35:06.346Z,49.28
2023-02-12T23:37:52.658Z,41.47
2023-02-12T23:40:39.223Z,47.80
2023-02-12T23:43:25.042Z,54.45
2023-02-12T23:46:11.178Z,44.47
2023-02-12T23:48:57.305Z,56.08
2023-02-12T23:51:43.125Z,45.97
2023-02-12T23:54:29.095Z,43.55
2023-02-12T23:57:14.853Z,42.78
